createdAt,value
2023-03-28T00:01:09.072Z,1.52
2023-03-28T00:03:39.674Z,1.68
2023-03-28T00:06:11.148Z,1.54
2023-03-28T00:08:40.925Z,1.65
2023-03-28T00:11:11.337Z,1.65
2023-03-28T00:13:39.257Z,1.48
2023-03-28T00:16:09.838Z,1.72
2023-03-28T00:18:39.138Z,1.84
2023-03-28T00:21:10.044Z,2.29
2023-03-28T00:23:37.456Z,2.09
2023-03-28T00:26:08.616Z,2.60
2023-03-28T00:28:38.018Z,2.58
2023-03-28T00:31:07.218Z,2.50
2023-03-28T00:33:35.144Z,2.59
2023-03-28T00:36:02.739Z,2.69
2023-03-28T00:38:31.430Z,2.34
2023-03-28T00:40:58.844Z,2.46
2023-03-28T00:43:40.017Z,2.54
2023-03-28T00:46:12.918Z,2.16
2023-03-28T00:48:51.204Z,2.37
2023-03-28T00:51:21.890Z,2.35
2023-03-28T00:53:50.937Z,2.25
2023-03-28T00:56:21.589Z,2.69
2023-03-28T00:58:52.050Z,2.56
2023-03-28T01:01:21.091Z,2.55
2023-03-28T01:04:02.144Z,2.71
2023-03-28T01:06:32.829Z,2.75
2023-03-28T01:09:02.186Z,2.34
2023-03-28T01:11:30.377Z,2.76
2023-03-28T01:14:02.146Z,2.40
2023-03-28T01:16:31.300Z,2.58
2023-03-28T01:19:02.652Z,2.56
2023-03-28T01:21:54.784Z,2.38
2023-03-28T01:24:56.098Z,2.43
2023-03-28T01:27:33.800Z,2.79
2023-03-28T01:30:38.580Z,2.79
2023-03-28T01:33:40.221Z,2.97
2023-03-28T01:36:58.814Z,2.95
2023-03-28T01:39:37.338Z,2.50
2023-03-28T01:42:12.405Z,3.09
2023-03-28T01:44:53.402Z,3.47
2023-03-28T01:47:29.168Z,2.88
2023-03-28T01:50:13.039Z,2.92
2023-03-28T01:52:45.891Z,2.81
2023-03-28T01:55:19.966Z,2.73
2023-03-28T01:57:56.538Z,2.41
2023-03-28T02:00:30.822Z,2.12
2023-03-28T02:03:02.305Z,2.14
2023-03-28T02:05:34.149Z,2.17
2023-03-28T02:08:05.952Z,2.26
2023-03-28T02:10:34.096Z,2.11
2023-03-28T02:13:05.141Z,2.10
2023-03-28T02:15:33.756Z,2.54
2023-03-28T02:18:06.824Z,2.67
2023-03-28T02:20:39.130Z,2.78
2023-03-28T02:23:10.150Z,2.45
2023-03-28T02:25:39.087Z,2.47
2023-03-28T02:28:09.694Z,2.15
2023-03-28T02:30:37.222Z,1.98
2023-03-28T02:33:08.613Z,1.87
2023-03-28T02:35:48.395Z,1.58
2023-03-28T02:38:21.459Z,1.97
2023-03-28T02:40:56.980Z,1.89
2023-03-28T02:43:42.184Z,1.92
2023-03-28T02:46:29.884Z,2.17
2023-03-28T02:49:33.115Z,2.06
2023-03-28T02:52:14.739Z,2.48
2023-03-28T02:54:50.038Z,2.29
2023-03-28T02:57:25.909Z,2.11
2023-03-28T02:59:56.836Z,2.24
2023-03-28T03:02:24.427Z,2.37
2023-03-28T03:04:52.297Z,2.29
2023-03-28T03:07:21.104Z,2.47
2023-03-28T03:09:53.912Z,2.58
2023-03-28T03:12:23.193Z,2.24
2023-03-28T03:14:51.325Z,2.46
2023-03-28T03:17:18.833Z,2.21
2023-03-28T03:19:46.247Z,2.16
2023-03-28T03:22:20.783Z,2.20
2023-03-28T03:24:51.015Z,2.31
2023-03-28T03:27:18.667Z,2.58
2023-03-28T03:29:46.146Z,2.48
2023-03-28T03:32:13.586Z,2.69
2023-03-28T03:34:41.441Z,2.52
2023-03-28T03:37:10.076Z,2.28
2023-03-28T03:39:37.501Z,1.95
2023-03-28T03:42:06.506Z,1.87
2023-03-28T03:44:33.897Z,2.21
2023-03-28T03:47:01.375Z,2.30
2023-03-28T03:49:28.816Z,2.08
2023-03-28T03:51:56.224Z,1.80
2023-03-28T03:54:23.736Z,1.94
2023-03-28T03:56:51.304Z,2.06
2023-03-28T03:59:20.044Z,2.06
2023-03-28T04:01:47.508Z,2.19
2023-03-28T04:04:15.528Z,1.98
2023-03-28T04:06:43.019Z,2.02
2023-03-28T04:09:10.418Z,1.63
2023-03-28T04:11:37.834Z,1.76
2023-03-28T04:14:05.467Z,2.01
2023-03-28T04:16:40.771Z,1.93
2023-03-28T04:19:09.140Z,2.10
2023-03-28T04:21:41.587Z,1.51
2023-03-28T04:24:09.473Z,1.95
2023-03-28T04:26:37.961Z,2.07
2023-03-28T04:29:05.975Z,2.02
2023-03-28T04:31:35.857Z,2.30
2023-03-28T04:34:05.350Z,1.87
2023-03-28T04:36:33.474Z,1.79
2023-03-28T04:39:02.334Z,1.90
2023-03-28T04:41:32.222Z,1.83
2023-03-28T04:43:59.745Z,1.74
2023-03-28T04:46:28.655Z,1.80
2023-03-28T04:48:57.416Z,1.82
2023-03-28T04:51:25.214Z,1.83
2023-03-28T04:53:52.754Z,1.94
2023-03-28T04:56:22.218Z,1.80
2023-03-28T04:58:49.619Z,1.97
2023-03-28T05:01:17.114Z,1.91
2023-03-28T05:03:44.758Z,2.07
2023-03-28T05:06:13.577Z,2.08
2023-03-28T05:08:41.472Z,1.97
2023-03-28T05:11:08.905Z,1.99
2023-03-28T05:13:36.445Z,2.26
2023-03-28T05:16:04.510Z,2.60
2023-03-28T05:18:32.057Z,2.06
2023-03-28T05:20:59.606Z,2.02
2023-03-28T05:23:28.505Z,1.76
2023-03-28T05:25:56.159Z,1.96
2023-03-28T05:28:23.608Z,1.82
2023-03-28T05:30:51.322Z,1.88
2023-03-28T05:33:18.983Z,1.73
2023-03-28T05:35:46.599Z,1.64
2023-03-28T05:38:14.350Z,1.90
2023-03-28T05:40:43.141Z,2.06
2023-03-28T05:43:11.660Z,3.32
2023-03-28T05:45:39.172Z,2.66
2023-03-28T05:48:06.809Z,3.45
2023-03-28T05:50:34.288Z,4.96
2023-03-28T05:53:01.801Z,5.43
2023-03-28T05:55:29.333Z,3.71
2023-03-28T05:57:59.447Z,3.37
2023-03-28T06:00:27.076Z,2.68
2023-03-28T06:02:54.997Z,2.21
2023-03-28T06:05:22.855Z,2.16
2023-03-28T06:07:50.279Z,2.56
2023-03-28T06:10:17.717Z,2.27
2023-03-28T06:12:45.167Z,2.13
2023-03-28T06:15:14.198Z,1.96
2023-03-28T06:17:41.703Z,1.96
2023-03-28T06:20:10.700Z,2.01
2023-03-28T06:22:38.572Z,2.17
2023-03-28T06:25:07.093Z,1.98
2023-03-28T06:27:35.668Z,2.57
2023-03-28T06:30:04.583Z,2.00
2023-03-28T06:32:33.492Z,2.07
2023-03-28T06:35:00.881Z,2.13
2023-03-28T06:37:28.306Z,2.28
2023-03-28T06:39:55.802Z,2.23
2023-03-28T06:42:23.258Z,2.40
2023-03-28T06:44:50.659Z,2.13
2023-03-28T06:47:18.049Z,2.19
2023-03-28T06:49:46.838Z,2.53
2023-03-28T06:52:14.364Z,2.38
2023-03-28T06:54:41.767Z,2.50
2023-03-28T06:57:09.481Z,2.41
2023-03-28T06:59:36.944Z,2.43
2023-03-28T07:02:04.456Z,2.44
2023-03-28T07:04:32.755Z,2.36
2023-03-28T07:07:01.992Z,2.64
2023-03-28T07:09:29.518Z,2.32
2023-03-28T07:11:56.955Z,2.56
2023-03-28T07:14:24.498Z,2.60
2023-03-28T07:16:51.931Z,3.15
2023-03-28T07:19:19.391Z,2.84
2023-03-28T07:21:46.926Z,3.16
2023-03-28T07:24:16.131Z,3.11
2023-03-28T07:26:43.651Z,3.31
2023-03-28T07:29:11.139Z,3.54
2023-03-28T07:31:38.771Z,3.88
2023-03-28T07:34:06.698Z,3.33
2023-03-28T07:36:34.162Z,3.56
2023-03-28T07:39:01.549Z,3.30
2023-03-28T07:41:30.391Z,3.49
2023-03-28T07:43:58.197Z,3.18
2023-03-28T07:46:25.647Z,3.45
2023-03-28T07:48:53.166Z,3.40
2023-03-28T07:51:20.725Z,3.53
2023-03-28T07:53:48.377Z,3.39
2023-03-28T07:56:15.770Z,3.49
2023-03-28T07:58:44.509Z,3.29
2023-03-28T08:01:13.909Z,3.28
2023-03-28T08:03:41.960Z,3.34
2023-03-28T08:06:28.576Z,3.59
2023-03-28T08:08:59.392Z,3.41
2023-03-28T08:11:27.461Z,3.49
2023-03-28T08:13:56.239Z,3.83
2023-03-28T08:16:23.687Z,3.64
2023-03-28T08:19:03.563Z,3.78
2023-03-28T08:21:37.918Z,4.00
2023-03-28T08:24:07.707Z,4.05
2023-03-28T08:26:35.334Z,9.54
2023-03-28T08:29:05.218Z,9.00
2023-03-28T08:31:33.007Z,10.40
2023-03-28T08:34:00.431Z,11.06
2023-03-28T08:36:28.972Z,9.55
2023-03-28T08:39:00.456Z,8.51
2023-03-28T08:41:43.250Z,5.15
2023-03-28T08:44:29.959Z,4.81
2023-03-28T08:47:00.357Z,5.04
2023-03-28T08:49:28.060Z,4.79
2023-03-28T08:51:59.976Z,4.35
2023-03-28T08:54:31.579Z,4.36
2023-03-28T08:57:03.292Z,4.82
2023-03-28T08:59:40.763Z,4.67
2023-03-28T09:02:18.134Z,4.76
2023-03-28T09:04:45.994Z,4.60
2023-03-28T09:07:22.339Z,4.94
2023-03-28T09:10:02.429Z,4.60
2023-03-28T09:12:41.012Z,4.73
2023-03-28T09:15:25.200Z,4.47
2023-03-28T09:18:06.423Z,4.85
2023-03-28T09:20:43.111Z,5.12
2023-03-28T09:23:23.474Z,4.95
2023-03-28T09:25:57.897Z,4.83
2023-03-28T09:28:39.049Z,4.75
2023-03-28T09:31:13.137Z,4.85
2023-03-28T09:33:45.232Z,5.01
2023-03-28T09:36:16.138Z,4.87
2023-03-28T09:38:48.520Z,5.12
2023-03-28T09:41:20.511Z,4.95
2023-03-28T09:43:53.121Z,5.00
2023-03-28T09:46:30.149Z,5.40
2023-03-28T09:48:57.919Z,4.92
2023-03-28T09:51:25.633Z,4.76
2023-03-28T09:53:53.107Z,4.50
2023-03-28T09:56:27.489Z,4.85
2023-03-28T09:58:56.631Z,4.82
2023-03-28T10:01:31.670Z,4.82
2023-03-28T10:04:00.421Z,5.25
2023-03-28T10:06:30.578Z,5.16
2023-03-28T10:09:17.161Z,5.48
2023-03-28T10:11:48.772Z,4.98
2023-03-28T10:14:33.978Z,5.56
2023-03-28T10:17:06.612Z,5.66
2023-03-28T10:19:37.083Z,5.37
2023-03-28T10:22:08.338Z,5.15
2023-03-28T10:24:37.172Z,5.51
2023-03-28T10:27:18.086Z,5.50
2023-03-28T10:29:47.166Z,5.50
2023-03-28T10:32:25.890Z,5.45
2023-03-28T10:35:01.852Z,5.38
2023-03-28T10:37:31.802Z,5.36
2023-03-28T10:40:02.065Z,5.26
2023-03-28T10:42:40.818Z,5.56
2023-03-28T10:45:20.535Z,5.43
2023-03-28T10:47:51.213Z,5.51
2023-03-28T10:50:23.197Z,5.64
2023-03-28T10:52:55.054Z,5.81
2023-03-28T10:55:27.343Z,5.28
2023-03-28T10:58:04.381Z,5.57
2023-03-28T11:00:39.516Z,6.27
2023-03-28T11:03:18.667Z,6.35
2023-03-28T11:06:08.216Z,5.48
2023-03-28T11:08:48.810Z,5.84
2023-03-28T11:11:30.471Z,6.09
2023-03-28T11:14:05.094Z,6.39
2023-03-28T11:16:46.998Z,6.31
2023-03-28T11:19:30.147Z,6.29
2023-03-28T11:22:05.579Z,6.35
2023-03-28T11:24:43.496Z,5.63
2023-03-28T11:27:18.601Z,6.14
2023-03-28T11:29:49.815Z,6.44
2023-03-28T11:32:22.526Z,6.61
2023-03-28T11:35:02.397Z,6.70
2023-03-28T11:37:35.166Z,6.88
2023-03-28T11:40:11.636Z,6.80
2023-03-28T11:42:43.063Z,6.15
2023-03-28T11:45:37.395Z,6.96
2023-03-28T11:48:13.722Z,7.12
2023-03-28T11:50:52.135Z,7.25
2023-03-28T11:53:25.268Z,7.21
2023-03-28T11:55:59.384Z,6.36
2023-03-28T11:58:30.676Z,6.39
2023-03-28T12:01:05.378Z,6.27
2023-03-28T12:03:38.603Z,6.06
2023-03-28T12:06:14.047Z,6.56
2023-03-28T12:08:45.796Z,6.99
2023-03-28T12:11:19.954Z,7.51
2023-03-28T12:14:01.407Z,6.87
2023-03-28T12:16:42.067Z,6.37
2023-03-28T12:19:14.552Z,6.65
2023-03-28T12:21:45.066Z,6.88
2023-03-28T12:24:23.161Z,7.26
2023-03-28T12:27:01.725Z,7.01
2023-03-28T12:29:37.360Z,6.79
2023-03-28T12:32:26.610Z,7.18
2023-03-28T12:35:01.341Z,7.49
2023-03-28T12:37:35.601Z,7.46
2023-03-28T12:40:19.916Z,6.88
2023-03-28T12:42:49.409Z,6.74
2023-03-28T12:45:21.013Z,6.79
2023-03-28T12:47:52.780Z,6.63
2023-03-28T12:50:25.434Z,6.90
2023-03-28T12:52:54.871Z,6.79
2023-03-28T12:55:46.579Z,7.88
2023-03-28T12:58:27.141Z,7.33
2023-03-28T13:01:05.461Z,7.55
2023-03-28T13:03:44.494Z,7.29
2023-03-28T13:06:22.658Z,7.30
2023-03-28T13:09:05.537Z,8.18
2023-03-28T13:11:40.999Z,8.20
2023-03-28T13:14:28.818Z,7.70
2023-03-28T13:16:59.069Z,7.42
2023-03-28T13:19:45.942Z,7.15
2023-03-28T13:22:29.680Z,7.16
2023-03-28T13:25:22.191Z,7.16
2023-03-28T13:27:51.086Z,7.51
2023-03-28T13:30:20.748Z,7.31
2023-03-28T13:32:51.438Z,7.16
2023-03-28T13:35:41.148Z,7.23
2023-03-28T13:38:34.924Z,8.03
2023-03-28T13:41:09.096Z,7.60
2023-03-28T13:43:43.713Z,7.13
2023-03-28T13:46:13.929Z,7.09
2023-03-28T13:48:47.304Z,7.24
2023-03-28T13:51:20.234Z,7.70
2023-03-28T13:53:49.360Z,8.42
2023-03-28T13:56:23.795Z,7.74
2023-03-28T13:58:53.141Z,7.71
2023-03-28T14:01:24.365Z,7.18
2023-03-28T14:03:53.042Z,7.37
2023-03-28T14:06:23.094Z,7.37
2023-03-28T14:08:52.126Z,7.69
2023-03-28T14:11:24.469Z,7.76
2023-03-28T14:14:02.835Z,7.89
2023-03-28T14:16:31.487Z,8.74
2023-03-28T14:19:01.232Z,8.27
2023-03-28T14:21:28.752Z,7.42
2023-03-28T14:23:59.375Z,7.18
2023-03-28T14:26:31.157Z,7.33
2023-03-28T14:29:02.142Z,7.77
2023-03-28T14:31:32.346Z,7.66
2023-03-28T14:34:00.873Z,7.79
2023-03-28T14:36:31.058Z,7.62
2023-03-28T14:39:13.354Z,7.79
2023-03-28T14:41:44.598Z,7.31
2023-03-28T14:44:14.012Z,7.41
2023-03-28T14:46:42.305Z,7.50
2023-03-28T14:49:19.436Z,7.51
2023-03-28T14:51:48.550Z,7.57
2023-03-28T14:54:20.541Z,7.83
2023-03-28T14:56:50.159Z,8.29
2023-03-28T14:59:20.050Z,8.28
2023-03-28T15:01:49.973Z,7.97
2023-03-28T15:04:21.559Z,7.95
2023-03-28T15:06:55.316Z,7.99
2023-03-28T15:09:31.443Z,7.57
2023-03-28T15:12:04.314Z,7.53
2023-03-28T15:14:38.604Z,7.56
2023-03-28T15:17:06.719Z,7.52
2023-03-28T15:19:37.803Z,7.71
2023-03-28T15:22:09.252Z,8.03
2023-03-28T15:24:38.154Z,8.17
2023-03-28T15:27:09.554Z,7.50
2023-03-28T15:29:39.461Z,8.24
2023-03-28T15:32:13.832Z,7.89
2023-03-28T15:34:47.385Z,8.05
2023-03-28T15:37:19.285Z,8.02
2023-03-28T15:39:49.607Z,7.71
2023-03-28T15:42:35.343Z,8.10
2023-03-28T15:45:22.153Z,8.20
2023-03-28T15:47:53.253Z,8.04
2023-03-28T15:50:27.135Z,8.11
2023-03-28T15:53:00.266Z,8.14
2023-03-28T15:55:28.763Z,8.28
2023-03-28T15:57:58.551Z,8.25
2023-03-28T16:00:40.576Z,8.43
2023-03-28T16:03:25.854Z,8.11
2023-03-28T16:05:59.735Z,8.67
2023-03-28T16:08:35.642Z,8.18
2023-03-28T16:11:05.173Z,8.52
2023-03-28T16:13:35.204Z,8.37
2023-03-28T16:16:05.501Z,8.32
2023-03-28T16:18:32.919Z,8.00
2023-03-28T16:21:00.356Z,7.83
2023-03-28T16:23:27.789Z,8.47
2023-03-28T16:25:55.214Z,8.50
2023-03-28T16:28:22.622Z,8.23
2023-03-28T16:30:52.941Z,8.10
2023-03-28T16:33:20.479Z,8.03
2023-03-28T16:35:48.080Z,8.16
2023-03-28T16:38:15.491Z,7.76
2023-03-28T16:40:43.137Z,8.27
2023-03-28T16:43:11.338Z,8.29
2023-03-28T16:45:38.876Z,8.35
2023-03-28T16:48:07.931Z,7.99
2023-03-28T16:50:35.406Z,8.53
2023-03-28T16:53:03.918Z,8.63
2023-03-28T16:55:31.344Z,9.08
2023-03-28T16:57:58.884Z,8.76
2023-03-28T17:00:26.690Z,8.94
2023-03-28T17:02:54.818Z,9.31
2023-03-28T17:05:23.679Z,8.90
2023-03-28T17:07:51.328Z,8.57
2023-03-28T17:10:18.812Z,9.08
2023-03-28T17:12:46.464Z,8.97
2023-03-28T17:15:14.160Z,8.67
2023-03-28T17:17:41.676Z,8.75
2023-03-28T17:20:11.752Z,8.59
2023-03-28T17:22:42.453Z,9.32
2023-03-28T17:25:10.983Z,9.43
2023-03-28T17:27:39.352Z,9.05
2023-03-28T17:30:08.163Z,9.04
2023-03-28T17:32:36.246Z,9.08
2023-03-28T17:35:04.190Z,9.24
2023-03-28T17:37:31.861Z,9.31
2023-03-28T17:40:00.603Z,9.22
2023-03-28T17:42:28.160Z,8.52
2023-03-28T17:44:55.622Z,8.86
2023-03-28T17:47:23.958Z,9.15
2023-03-28T17:49:51.404Z,9.08
2023-03-28T17:52:19.203Z,9.16
2023-03-28T17:54:48.291Z,9.33
2023-03-28T17:57:18.586Z,9.26
2023-03-28T17:59:46.058Z,9.44
2023-03-28T18:02:13.505Z,9.38
2023-03-28T18:04:41.445Z,9.42
2023-03-28T18:07:16.255Z,9.39
2023-03-28T18:09:44.953Z,9.35
2023-03-28T18:12:13.121Z,9.12
2023-03-28T18:14:42.031Z,9.16
2023-03-28T18:17:09.483Z,9.00
2023-03-28T18:19:37.093Z,8.97
2023-03-28T18:22:05.645Z,9.02
2023-03-28T18:24:34.080Z,9.03
2023-03-28T18:27:01.564Z,8.90
2023-03-28T18:29:29.061Z,8.95
2023-03-28T18:31:58.081Z,8.86
2023-03-28T18:34:25.871Z,9.01
2023-03-28T18:36:55.695Z,8.99
2023-03-28T18:39:23.996Z,9.02
2023-03-28T18:41:51.906Z,9.01
2023-03-28T18:44:19.345Z,8.97
2023-03-28T18:46:54.539Z,8.92
2023-03-28T18:49:23.368Z,9.06
2023-03-28T18:51:50.914Z,9.10
2023-03-28T18:54:18.582Z,9.01
2023-03-28T18:56:46.424Z,8.98
2023-03-28T18:59:14.090Z,8.91
2023-03-28T19:01:44.383Z,8.85
2023-03-28T19:04:12.784Z,8.79
2023-03-28T19:06:41.597Z,8.82
2023-03-28T19:09:09.047Z,8.86
2023-03-28T19:11:36.626Z,8.79
2023-03-28T19:14:04.148Z,8.75
2023-03-28T19:16:32.349Z,8.83
2023-03-28T19:19:00.913Z,8.79
2023-03-28T19:21:30.349Z,8.72
2023-03-28T19:23:59.144Z,8.73
2023-03-28T19:26:27.382Z,8.87
2023-03-28T19:28:54.934Z,8.66
2023-03-28T19:31:24.697Z,8.77
2023-03-28T19:33:52.274Z,8.94
2023-03-28T19:36:19.817Z,8.99
2023-03-28T19:38:47.275Z,8.87
2023-03-28T19:41:18.966Z,8.68
2023-03-28T19:43:47.892Z,8.77
2023-03-28T19:46:19.964Z,8.61
2023-03-28T19:48:47.501Z,8.89
2023-03-28T19:51:15.590Z,8.81
2023-03-28T19:53:43.212Z,8.93
2023-03-28T19:56:11.881Z,8.93
2023-03-28T19:58:41.111Z,8.77
2023-03-28T20:01:08.538Z,8.91
2023-03-28T20:03:36.091Z,8.97
2023-03-28T20:06:05.426Z,9.05
2023-03-28T20:08:34.371Z,9.49
2023-03-28T20:11:03.618Z,9.30
2023-03-28T20:13:31.413Z,9.09
2023-03-28T20:16:02.319Z,8.99
2023-03-28T20:18:29.943Z,9.39
2023-03-28T20:21:00.269Z,9.77
2023-03-28T20:23:29.482Z,9.43
2023-03-28T20:25:58.697Z,9.33
2023-03-28T20:28:26.626Z,8.61
2023-03-28T20:30:54.574Z,9.49
2023-03-28T20:33:23.394Z,9.72
2023-03-28T20:35:54.702Z,9.15
2023-03-28T20:38:22.391Z,9.37
2023-03-28T20:40:49.959Z,10.09
2023-03-28T20:43:20.167Z,9.23
2023-03-28T20:45:53.733Z,9.68
2023-03-28T20:48:25.988Z,9.41
2023-03-28T20:50:54.072Z,9.18
2023-03-28T20:53:22.454Z,9.29
2023-03-28T20:55:50.344Z,8.99
2023-03-28T20:58:17.777Z,8.91
2023-03-28T21:00:47.329Z,9.19
2023-03-28T21:03:15.732Z,8.76
2023-03-28T21:05:46.070Z,8.61
2023-03-28T21:08:15.659Z,8.76
2023-03-28T21:10:43.119Z,8.75
2023-03-28T21:13:12.385Z,8.65
2023-03-28T21:15:39.951Z,8.52
2023-03-28T21:18:09.743Z,8.51
2023-03-28T21:20:37.219Z,8.34
2023-03-28T21:23:06.268Z,8.20
2023-03-28T21:25:33.718Z,8.14
2023-03-28T21:28:01.455Z,8.24
2023-03-28T21:30:28.885Z,8.17
2023-03-28T21:33:02.195Z,8.32
2023-03-28T21:35:31.080Z,8.33
2023-03-28T21:37:58.509Z,8.43
2023-03-28T21:40:27.273Z,8.32
2023-03-28T21:42:55.124Z,8.27
2023-03-28T21:45:22.538Z,8.23
2023-03-28T21:47:50.908Z,8.31
2023-03-28T21:50:18.646Z,8.33
2023-03-28T21:52:46.167Z,8.33
2023-03-28T21:55:13.603Z,8.08
2023-03-28T21:57:42.618Z,8.20
2023-03-28T22:00:14.921Z,8.34
2023-03-28T22:02:43.113Z,8.20
2023-03-28T22:05:26.170Z,8.22
2023-03-28T22:07:56.541Z,8.03
2023-03-28T22:10:26.535Z,8.09
2023-03-28T22:12:58.638Z,8.00
2023-03-28T22:15:26.870Z,8.05
2023-03-28T22:17:57.897Z,7.98
2023-03-28T22:20:27.108Z,7.89
2023-03-28T22:22:54.839Z,8.01
2023-03-28T22:25:23.134Z,8.07
2023-03-28T22:27:50.557Z,7.79
2023-03-28T22:30:19.863Z,7.87
2023-03-28T22:32:47.726Z,7.95
2023-03-28T22:35:15.264Z,7.84
2023-03-28T22:37:42.661Z,7.84
2023-03-28T22:40:11.221Z,7.70
2023-03-28T22:42:38.732Z,7.83
2023-03-28T22:45:07.552Z,7.51
2023-03-28T22:47:39.581Z,7.73
2023-03-28T22:50:09.123Z,7.37
2023-03-28T22:52:37.901Z,7.60
2023-03-28T22:55:06.306Z,7.68
2023-03-28T22:57:33.777Z,7.75
2023-03-28T23:00:01.770Z,7.79
2023-03-28T23:02:29.433Z,7.69
2023-03-28T23:04:58.616Z,7.59
2023-03-28T23:07:27.182Z,7.55
2023-03-28T23:09:54.610Z,7.60
2023-03-28T23:14:49.596Z,7.60
2023-03-28T23:17:18.976Z,7.50
2023-03-28T23:19:48.807Z,7.30
2023-03-28T23:22:18.685Z,7.39
2023-03-28T23:24:46.876Z,7.48
2023-03-28T23:27:14.278Z,7.37
2023-03-28T23:29:41.695Z,7.37
2023-03-28T23:32:09.125Z,7.16
2023-03-28T23:34:37.344Z,7.12
2023-03-28T23:37:05.425Z,7.22
2023-03-28T23:39:34.138Z,7.21
2023-03-28T23:42:01.892Z,7.16
2023-03-28T23:44:30.741Z,6.80
2023-03-28T23:47:00.164Z,7.21
2023-03-28T23:49:27.570Z,6.89
2023-03-28T23:51:55.063Z,7.21
2023-03-28T23:54:22.470Z,7.24
2023-03-28T23:56:51.537Z,7.07
2023-03-28T23:59:18.978Z,6.96
